Hecker, Illinois
Current Conditions -  °F | °C
As of 11:58 AM on Thursday 18 Dec 2014 (Local Time) from KBLV Reporting Station
Broken Clouds Broken Clouds  
Wind Chill: 28°   Ceiling: 4600
Heat Index: 33°   Visibility: 10mi
Dew Point: 28°   Wind: 5mph
Humidity: 82%   Direction: 40°NE
Pressure: 30.26"   Gusts: NA
Location:  38.31°N, 89.99°W
Report Text: KBLV 181758Z AUTO 04004KT 10SM FEW013 BKN046 BKN090 00/M02 A3026 RMK AO2 UPB1709E1731 SLP255 P0000 60000 T00041023 10004 21015 58014
Loading
Personal Weather Stations






























Interactive Weather Map New forecast layout! Learn more

10-Day Weather Forecast

Advertisements
Track Severe Weather on mobile